sensor_id;sensor_type;location;lat;lon;timestamp;pressure;altitude;pressure_sealevel;temperature;humidity
12073;BME280;6098;49.004;8.372;2023-01-26T00:07:09;101088.09;;;2.43;80.16
12073;BME280;6098;49.004;8.372;2023-01-26T00:22:02;101089.81;;;2.41;80.77
12073;BME280;6098;49.004;8.372;2023-01-26T00:36:51;101069.30;;;2.36;80.74
12073;BME280;6098;49.004;8.372;2023-01-26T00:51:40;101065.80;;;2.35;80.54
12073;BME280;6098;49.004;8.372;2023-01-26T01:06:30;101047.47;;;2.30;80.04
12073;BME280;6098;49.004;8.372;2023-01-26T01:21:21;101032.68;;;2.34;79.79
12073;BME280;6098;49.004;8.372;2023-01-26T01:36:11;101020.01;;;2.28;79.67
12073;BME280;6098;49.004;8.372;2023-01-26T01:51:04;101012.16;;;2.31;79.55
12073;BME280;6098;49.004;8.372;2023-01-26T02:06:15;101013.50;;;2.34;79.30
12073;BME280;6098;49.004;8.372;2023-01-26T02:21:10;101013.89;;;2.28;79.26
12073;BME280;6098;49.004;8.372;2023-01-26T02:36:05;101011.73;;;2.33;79.55
12073;BME280;6098;49.004;8.372;2023-01-26T02:50:51;100993.37;;;2.21;80.07
12073;BME280;6098;49.004;8.372;2023-01-26T03:05:42;100996.87;;;2.23;80.18
12073;BME280;6098;49.004;8.372;2023-01-26T03:20:32;100979.81;;;2.11;80.77
12073;BME280;6098;49.004;8.372;2023-01-26T03:35:45;100979.39;;;2.15;80.98
12073;BME280;6098;49.004;8.372;2023-01-26T03:50:36;100968.94;;;2.13;81.15
12073;BME280;6098;49.004;8.372;2023-01-26T04:05:50;100956.31;;;2.19;80.98
12073;BME280;6098;49.004;8.372;2023-01-26T04:21:05;100946.27;;;2.16;81.13
12073;BME280;6098;49.004;8.372;2023-01-26T04:36:19;100941.91;;;2.14;84.64
12073;BME280;6098;49.004;8.372;2023-01-26T04:51:13;100934.08;;;2.12;85.31
12073;BME280;6098;49.004;8.372;2023-01-26T05:06:05;100926.20;;;2.09;86.53
12073;BME280;6098;49.004;8.372;2023-01-26T05:20:56;100918.30;;;1.93;88.60
12073;BME280;6098;49.004;8.372;2023-01-26T05:36:02;100923.09;;;1.96;88.77
12073;BME280;6098;49.004;8.372;2023-01-26T05:50:47;100921.28;;;1.81;88.82
12073;BME280;6098;49.004;8.372;2023-01-26T06:05:40;100917.36;;;1.83;89.05
12073;BME280;6098;49.004;8.372;2023-01-26T06:20:33;100920.00;;;1.87;88.91
12073;BME280;6098;49.004;8.372;2023-01-26T06:35:21;100928.17;;;1.68;89.44
12073;BME280;6098;49.004;8.372;2023-01-26T06:50:12;100937.39;;;1.82;90.06
12073;BME280;6098;49.004;8.372;2023-01-26T07:05:01;100941.24;;;1.68;90.35
12073;BME280;6098;49.004;8.372;2023-01-26T07:19:51;100954.33;;;1.72;89.46
12073;BME280;6098;49.004;8.372;2023-01-26T07:34:41;100951.72;;;1.73;89.18
12073;BME280;6098;49.004;8.372;2023-01-26T07:49:30;100948.57;;;1.58;89.13
12073;BME280;6098;49.004;8.372;2023-01-26T08:04:20;100961.68;;;1.64;88.90
12073;BME280;6098;49.004;8.372;2023-01-26T08:19:10;100972.63;;;1.70;88.19
12073;BME280;6098;49.004;8.372;2023-01-26T08:34:00;100986.55;;;1.72;87.63
12073;BME280;6098;49.004;8.372;2023-01-26T08:48:56;100975.28;;;1.76;86.18
12073;BME280;6098;49.004;8.372;2023-01-26T09:03:47;100984.41;;;1.76;85.82
12073;BME280;6098;49.004;8.372;2023-01-26T09:18:37;100984.39;;;1.73;86.44
12073;BME280;6098;49.004;8.372;2023-01-26T09:33:27;100982.61;;;1.69;85.02
12073;BME280;6098;49.004;8.372;2023-01-26T09:48:21;100984.41;;;1.72;83.60
12073;BME280;6098;49.004;8.372;2023-01-26T10:18:05;100985.72;;;1.79;81.88
12073;BME280;6098;49.004;8.372;2023-01-26T10:32:54;100973.13;;;1.82;81.32
12073;BME280;6098;49.004;8.372;2023-01-26T10:47:45;100965.31;;;1.89;82.08
12073;BME280;6098;49.004;8.372;2023-01-26T11:02:34;100946.16;;;1.89;82.73
12073;BME280;6098;49.004;8.372;2023-01-26T11:17:25;100937.83;;;1.80;84.27
12073;BME280;6098;49.004;8.372;2023-01-26T11:32:38;100928.22;;;1.79;86.33
12073;BME280;6098;49.004;8.372;2023-01-26T12:02:37;100910.22;;;1.54;86.03
12073;BME280;6098;49.004;8.372;2023-01-26T12:17:44;100888.58;;;1.71;84.65
12073;BME280;6098;49.004;8.372;2023-01-26T12:32:35;100872.86;;;1.65;83.04
12073;BME280;6098;49.004;8.372;2023-01-26T12:47:33;100854.66;;;1.82;80.16
12073;BME280;6098;49.004;8.372;2023-01-26T13:02:28;100856.41;;;1.91;77.02
12073;BME280;6098;49.004;8.372;2023-01-26T13:47:04;100855.50;;;1.84;72.45
12073;BME280;6098;49.004;8.372;2023-01-26T14:01:52;100854.67;;;1.87;72.28
12073;BME280;6098;49.004;8.372;2023-01-26T14:16:40;100863.38;;;1.87;71.60
12073;BME280;6098;49.004;8.372;2023-01-26T14:31:31;100880.72;;;1.73;71.79
12073;BME280;6098;49.004;8.372;2023-01-26T14:46:24;100888.13;;;1.74;72.22
12073;BME280;6098;49.004;8.372;2023-01-26T15:01:23;100885.09;;;1.73;73.07
12073;BME280;6098;49.004;8.372;2023-01-26T15:16:16;100895.47;;;1.58;73.96
12073;BME280;6098;49.004;8.372;2023-01-26T15:31:05;100914.57;;;1.48;74.24
12073;BME280;6098;49.004;8.372;2023-01-26T15:45:56;100914.48;;;1.38;74.20
12073;BME280;6098;49.004;8.372;2023-01-26T16:00:49;100901.87;;;1.39;74.17
12073;BME280;6098;49.004;8.372;2023-01-26T16:15:38;100900.50;;;1.30;74.07
12073;BME280;6098;49.004;8.372;2023-01-26T16:30:25;100892.64;;;1.27;73.62
12073;BME280;6098;49.004;8.372;2023-01-26T16:45:22;100897.86;;;1.24;72.74
12073;BME280;6098;49.004;8.372;2023-01-26T17:00:14;100903.51;;;1.25;71.90
12073;BME280;6098;49.004;8.372;2023-01-26T17:15:06;100904.89;;;1.33;70.85
12073;BME280;6098;49.004;8.372;2023-01-26T17:29:56;100900.92;;;1.28;69.87
12073;BME280;6098;49.004;8.372;2023-01-26T17:44:46;100918.81;;;1.37;68.86
12073;BME280;6098;49.004;8.372;2023-01-26T17:59:35;100912.72;;;1.33;68.71
12073;BME280;6098;49.004;8.372;2023-01-26T18:14:26;100920.61;;;1.40;68.89
12073;BME280;6098;49.004;8.372;2023-01-26T18:29:16;100918.34;;;1.30;69.70
12073;BME280;6098;49.004;8.372;2023-01-26T18:44:06;100923.19;;;1.35;69.66
12073;BME280;6098;49.004;8.372;2023-01-26T18:58:57;100911.44;;;1.37;70.08
12073;BME280;6098;49.004;8.372;2023-01-26T19:13:46;100919.25;;;1.34;70.69
12073;BME280;6098;49.004;8.372;2023-01-26T19:28:36;100919.25;;;1.33;71.55
12073;BME280;6098;49.004;8.372;2023-01-26T19:43:27;100915.75;;;1.29;72.46
12073;BME280;6098;49.004;8.372;2023-01-26T19:58:17;100914.02;;;1.33;73.24
12073;BME280;6098;49.004;8.372;2023-01-26T20:13:06;100908.73;;;1.26;75.07
12073;BME280;6098;49.004;8.372;2023-01-26T20:27:56;100906.52;;;1.18;75.38
12073;BME280;6098;49.004;8.372;2023-01-26T20:42:45;100902.95;;;1.09;75.66
12073;BME280;6098;49.004;8.372;2023-01-26T20:57:37;100902.06;;;1.06;74.98
12073;BME280;6098;49.004;8.372;2023-01-26T21:12:26;100901.20;;;1.09;74.58
12073;BME280;6098;49.004;8.372;2023-01-26T21:27:16;100884.22;;;1.05;74.81
12073;BME280;6098;49.004;8.372;2023-01-26T21:42:06;100879.06;;;1.12;74.48
12073;BME280;6098;49.004;8.372;2023-01-26T21:56:55;100866.80;;;1.02;76.43
12073;BME280;6098;49.004;8.372;2023-01-26T22:11:44;100864.17;;;0.98;77.14
12073;BME280;6098;49.004;8.372;2023-01-26T22:26:34;100853.76;;;1.03;77.85
12073;BME280;6098;49.004;8.372;2023-01-26T22:41:24;100851.98;;;1.00;77.98
12073;BME280;6098;49.004;8.372;2023-01-26T22:56:12;100848.47;;;0.94;77.56
12073;BME280;6098;49.004;8.372;2023-01-26T23:11:04;100835.08;;;1.06;78.21
12073;BME280;6098;49.004;8.372;2023-01-26T23:25:53;100828.02;;;0.93;79.95
12073;BME280;6098;49.004;8.372;2023-01-26T23:40:43;100814.53;;;0.94;80.16
12073;BME280;6098;49.004;8.372;2023-01-26T23:55:33;100818.47;;;0.97;81.40
